sensor_id;sensor_type;location;lat;lon;timestamp;temperature;humidity
51661;DHT22;37741;49.748;8.490;2022-12-18T00:02:13;-4.40;83.60
51661;DHT22;37741;49.748;8.490;2022-12-18T00:04:39;-4.40;83.50
51661;DHT22;37741;49.748;8.490;2022-12-18T00:07:04;-4.40;83.50
51661;DHT22;37741;49.748;8.490;2022-12-18T00:09:30;-4.40;83.50
51661;DHT22;37741;49.748;8.490;2022-12-18T00:11:55;-4.40;83.50
51661;DHT22;37741;49.748;8.490;2022-12-18T00:14:21;-4.50;83.30
51661;DHT22;37741;49.748;8.490;2022-12-18T00:16:47;-4.40;83.40
51661;DHT22;37741;49.748;8.490;2022-12-18T00:19:13;-4.40;83.40
51661;DHT22;37741;49.748;8.490;2022-12-18T00:21:43;-4.40;83.40
51661;DHT22;37741;49.748;8.490;2022-12-18T00:24:10;-4.50;83.30
51661;DHT22;37741;49.748;8.490;2022-12-18T00:26:37;-4.50;83.30
51661;DHT22;37741;49.748;8.490;2022-12-18T00:29:12;-4.50;83.40
51661;DHT22;37741;49.748;8.490;2022-12-18T00:31:42;-4.50;83.30
51661;DHT22;37741;49.748;8.490;2022-12-18T00:34:12;-4.50;83.20
51661;DHT22;37741;49.748;8.490;2022-12-18T00:36:39;-4.50;83.20
51661;DHT22;37741;49.748;8.490;2022-12-18T00:39:05;-4.50;83.20
51661;DHT22;37741;49.748;8.490;2022-12-18T00:41:31;-4.50;83.20
51661;DHT22;37741;49.748;8.490;2022-12-18T00:44:17;-4.50;83.20
51661;DHT22;37741;49.748;8.490;2022-12-18T00:46:43;-4.50;83.30
51661;DHT22;37741;49.748;8.490;2022-12-18T00:49:12;-4.50;83.20
51661;DHT22;37741;49.748;8.490;2022-12-18T00:51:37;-4.50;83.20
51661;DHT22;37741;49.748;8.490;2022-12-18T00:54:03;-4.50;83.20
51661;DHT22;37741;49.748;8.490;2022-12-18T00:56:29;-4.50;83.20
51661;DHT22;37741;49.748;8.490;2022-12-18T00:58:55;-4.50;83.20
51661;DHT22;37741;49.748;8.490;2022-12-18T01:01:20;-4.50;83.20
51661;DHT22;37741;49.748;8.490;2022-12-18T01:03:46;-4.50;83.20
51661;DHT22;37741;49.748;8.490;2022-12-18T01:06:14;-4.50;83.20
51661;DHT22;37741;49.748;8.490;2022-12-18T01:08:40;-4.50;83.20
51661;DHT22;37741;49.748;8.490;2022-12-18T01:11:11;-4.50;83.20
51661;DHT22;37741;49.748;8.490;2022-12-18T01:13:37;-4.50;83.10
51661;DHT22;37741;49.748;8.490;2022-12-18T01:16:03;-4.50;83.10
51661;DHT22;37741;49.748;8.490;2022-12-18T01:18:28;-4.50;83.10
51661;DHT22;37741;49.748;8.490;2022-12-18T01:20:54;-4.50;83.10
51661;DHT22;37741;49.748;8.490;2022-12-18T01:23:20;-4.50;83.10
51661;DHT22;37741;49.748;8.490;2022-12-18T01:25:45;-4.50;83.10
51661;DHT22;37741;49.748;8.490;2022-12-18T01:28:11;-4.50;83.10
51661;DHT22;37741;49.748;8.490;2022-12-18T01:30:36;-4.50;83.10
51661;DHT22;37741;49.748;8.490;2022-12-18T01:33:04;-4.60;83.00
51661;DHT22;37741;49.748;8.490;2022-12-18T01:35:30;-4.60;83.00
51661;DHT22;37741;49.748;8.490;2022-12-18T01:37:56;-4.60;83.00
51661;DHT22;37741;49.748;8.490;2022-12-18T01:40:22;-4.60;83.00
51661;DHT22;37741;49.748;8.490;2022-12-18T01:42:54;-4.60;83.00
51661;DHT22;37741;49.748;8.490;2022-12-18T01:45:28;-4.60;83.00
51661;DHT22;37741;49.748;8.490;2022-12-18T01:48:06;-4.50;83.00
51661;DHT22;37741;49.748;8.490;2022-12-18T01:50:37;-4.60;82.80
51661;DHT22;37741;49.748;8.490;2022-12-18T01:53:07;-4.60;83.20
51661;DHT22;37741;49.748;8.490;2022-12-18T01:55:42;-4.60;82.60
51661;DHT22;37741;49.748;8.490;2022-12-18T01:58:08;-4.60;82.60
51661;DHT22;37741;49.748;8.490;2022-12-18T02:00:34;-4.60;82.60
51661;DHT22;37741;49.748;8.490;2022-12-18T02:02:59;-4.70;82.40
51661;DHT22;37741;49.748;8.490;2022-12-18T02:05:45;-4.70;82.60
51661;DHT22;37741;49.748;8.490;2022-12-18T02:13:12;-4.70;82.60
51661;DHT22;37741;49.748;8.490;2022-12-18T02:18:43;-4.70;82.60
51661;DHT22;37741;49.748;8.490;2022-12-18T02:24:18;-4.70;82.50
51661;DHT22;37741;49.748;8.490;2022-12-18T02:26:58;-4.70;82.50
51661;DHT22;37741;49.748;8.490;2022-12-18T02:32:02;-4.80;82.50
51661;DHT22;37741;49.748;8.490;2022-12-18T02:34:31;-4.70;82.50
51661;DHT22;37741;49.748;8.490;2022-12-18T02:36:59;-4.80;82.50
51661;DHT22;37741;49.748;8.490;2022-12-18T02:39:26;-4.80;82.50
51661;DHT22;37741;49.748;8.490;2022-12-18T02:41:52;-4.80;82.50
51661;DHT22;37741;49.748;8.490;2022-12-18T02:44:18;-4.80;82.50
51661;DHT22;37741;49.748;8.490;2022-12-18T02:46:51;-4.80;82.50
51661;DHT22;37741;49.748;8.490;2022-12-18T02:49:36;-4.80;82.50
51661;DHT22;37741;49.748;8.490;2022-12-18T02:57:40;-4.80;82.40
51661;DHT22;37741;49.748;8.490;2022-12-18T03:00:12;-4.80;82.40
51661;DHT22;37741;49.748;8.490;2022-12-18T03:05:38;-4.80;82.40
51661;DHT22;37741;49.748;8.490;2022-12-18T03:08:12;-4.80;82.40
51661;DHT22;37741;49.748;8.490;2022-12-18T03:10:45;-4.90;82.40
51661;DHT22;37741;49.748;8.490;2022-12-18T03:13:19;-4.90;82.30
51661;DHT22;37741;49.748;8.490;2022-12-18T03:15:48;-4.90;82.30
51661;DHT22;37741;49.748;8.490;2022-12-18T03:18:21;-4.90;82.40
51661;DHT22;37741;49.748;8.490;2022-12-18T03:20:49;-4.90;82.30
51661;DHT22;37741;49.748;8.490;2022-12-18T03:23:21;-4.90;82.30
51661;DHT22;37741;49.748;8.490;2022-12-18T03:25:49;-4.90;82.30
51661;DHT22;37741;49.748;8.490;2022-12-18T03:28:20;-4.90;82.30
51661;DHT22;37741;49.748;8.490;2022-12-18T03:30:50;-4.90;82.30
51661;DHT22;37741;49.748;8.490;2022-12-18T03:36:08;-4.90;82.20
51661;DHT22;37741;49.748;8.490;2022-12-18T03:38:34;-4.90;82.20
51661;DHT22;37741;49.748;8.490;2022-12-18T03:41:11;-4.90;82.10
51661;DHT22;37741;49.748;8.490;2022-12-18T03:46:33;-4.90;82.10
51661;DHT22;37741;49.748;8.490;2022-12-18T03:51:45;-5.00;82.00
51661;DHT22;37741;49.748;8.490;2022-12-18T03:54:15;-5.00;82.00
51661;DHT22;37741;49.748;8.490;2022-12-18T03:56:49;-5.00;81.90
51661;DHT22;37741;49.748;8.490;2022-12-18T03:59:17;-5.10;81.80
51661;DHT22;37741;49.748;8.490;2022-12-18T04:01:47;-5.00;81.90
51661;DHT22;37741;49.748;8.490;2022-12-18T04:04:15;-5.10;81.80
51661;DHT22;37741;49.748;8.490;2022-12-18T04:06:42;-5.10;81.70
51661;DHT22;37741;49.748;8.490;2022-12-18T04:09:09;-5.10;81.70
51661;DHT22;37741;49.748;8.490;2022-12-18T04:11:35;-5.10;81.70
51661;DHT22;37741;49.748;8.490;2022-12-18T04:14:00;-5.10;81.60
51661;DHT22;37741;49.748;8.490;2022-12-18T04:16:26;-5.10;81.50
51661;DHT22;37741;49.748;8.490;2022-12-18T04:18:53;-5.20;81.40
51661;DHT22;37741;49.748;8.490;2022-12-18T04:21:19;-5.10;81.50
51661;DHT22;37741;49.748;8.490;2022-12-18T04:23:45;-5.20;81.40
51661;DHT22;37741;49.748;8.490;2022-12-18T04:26:10;-5.20;81.30
51661;DHT22;37741;49.748;8.490;2022-12-18T04:28:36;-5.20;81.30
51661;DHT22;37741;49.748;8.490;2022-12-18T04:31:03;-5.20;81.30
51661;DHT22;37741;49.748;8.490;2022-12-18T04:33:29;-5.20;81.20
51661;DHT22;37741;49.748;8.490;2022-12-18T04:35:55;-5.20;81.20
51661;DHT22;37741;49.748;8.490;2022-12-18T04:38:20;-5.20;81.20
51661;DHT22;37741;49.748;8.490;2022-12-18T04:40:46;-5.30;81.00
51661;DHT22;37741;49.748;8.490;2022-12-18T04:43:12;-5.30;81.00
51661;DHT22;37741;49.748;8.490;2022-12-18T04:45:37;-5.30;81.00
51661;DHT22;37741;49.748;8.490;2022-12-18T04:48:03;-5.20;80.90
51661;DHT22;37741;49.748;8.490;2022-12-18T04:50:30;-5.30;80.80
51661;DHT22;37741;49.748;8.490;2022-12-18T04:52:55;-5.30;80.80
51661;DHT22;37741;49.748;8.490;2022-12-18T04:55:21;-5.30;80.70
51661;DHT22;37741;49.748;8.490;2022-12-18T04:57:47;-5.30;80.60
51661;DHT22;37741;49.748;8.490;2022-12-18T05:00:13;-5.30;80.60
51661;DHT22;37741;49.748;8.490;2022-12-18T05:02:38;-5.30;80.60
51661;DHT22;37741;49.748;8.490;2022-12-18T05:05:05;-5.40;80.50
51661;DHT22;37741;49.748;8.490;2022-12-18T05:07:30;-5.40;80.40
51661;DHT22;37741;49.748;8.490;2022-12-18T05:09:56;-5.40;80.40
51661;DHT22;37741;49.748;8.490;2022-12-18T05:12:22;-5.40;80.40
51661;DHT22;37741;49.748;8.490;2022-12-18T05:14:47;-5.40;80.30
51661;DHT22;37741;49.748;8.490;2022-12-18T05:17:13;-5.40;80.40
51661;DHT22;37741;49.748;8.490;2022-12-18T05:19:38;-5.40;80.30
51661;DHT22;37741;49.748;8.490;2022-12-18T05:22:04;-5.50;80.20
51661;DHT22;37741;49.748;8.490;2022-12-18T05:24:30;-5.40;80.30
51661;DHT22;37741;49.748;8.490;2022-12-18T05:26:55;-5.40;80.30
51661;DHT22;37741;49.748;8.490;2022-12-18T05:29:21;-5.50;80.20
51661;DHT22;37741;49.748;8.490;2022-12-18T05:31:46;-5.40;80.20
51661;DHT22;37741;49.748;8.490;2022-12-18T05:34:12;-5.50;80.10
51661;DHT22;37741;49.748;8.490;2022-12-18T05:36:39;-5.50;80.00
51661;DHT22;37741;49.748;8.490;2022-12-18T05:39:05;-5.50;80.00
51661;DHT22;37741;49.748;8.490;2022-12-18T05:41:31;-5.50;80.00
51661;DHT22;37741;49.748;8.490;2022-12-18T05:43:58;-5.50;80.10
51661;DHT22;37741;49.748;8.490;2022-12-18T05:46:24;-5.50;80.00
51661;DHT22;37741;49.748;8.490;2022-12-18T05:48:50;-5.60;79.90
51661;DHT22;37741;49.748;8.490;2022-12-18T05:51:18;-5.60;79.70
51661;DHT22;37741;49.748;8.490;2022-12-18T05:53:45;-5.60;79.60
51661;DHT22;37741;49.748;8.490;2022-12-18T05:56:16;-5.60;79.70
51661;DHT22;37741;49.748;8.490;2022-12-18T05:58:42;-5.60;79.60
51661;DHT22;37741;49.748;8.490;2022-12-18T06:01:09;-5.60;79.50
51661;DHT22;37741;49.748;8.490;2022-12-18T06:03:35;-5.70;79.50
51661;DHT22;37741;49.748;8.490;2022-12-18T06:06:00;-5.70;79.30
51661;DHT22;37741;49.748;8.490;2022-12-18T06:08:26;-5.70;79.30
51661;DHT22;37741;49.748;8.490;2022-12-18T06:10:52;-5.70;79.20
51661;DHT22;37741;49.748;8.490;2022-12-18T06:13:19;-5.70;79.30
51661;DHT22;37741;49.748;8.490;2022-12-18T06:15:44;-5.70;79.30
51661;DHT22;37741;49.748;8.490;2022-12-18T06:18:10;-5.70;79.10
51661;DHT22;37741;49.748;8.490;2022-12-18T06:20:36;-5.70;79.20
51661;DHT22;37741;49.748;8.490;2022-12-18T06:23:02;-5.70;79.10
51661;DHT22;37741;49.748;8.490;2022-12-18T06:25:28;-5.70;79.10
51661;DHT22;37741;49.748;8.490;2022-12-18T06:27:54;-5.80;79.00
51661;DHT22;37741;49.748;8.490;2022-12-18T06:30:20;-5.80;79.00
51661;DHT22;37741;49.748;8.490;2022-12-18T06:32:45;-5.80;78.90
51661;DHT22;37741;49.748;8.490;2022-12-18T06:35:11;-5.80;78.90
51661;DHT22;37741;49.748;8.490;2022-12-18T06:37:36;-5.80;78.90
51661;DHT22;37741;49.748;8.490;2022-12-18T06:40:02;-5.80;78.80
51661;DHT22;37741;49.748;8.490;2022-12-18T06:42:28;-5.80;78.80
51661;DHT22;37741;49.748;8.490;2022-12-18T06:44:54;-5.80;78.80
51661;DHT22;37741;49.748;8.490;2022-12-18T06:47:19;-5.80;78.80
51661;DHT22;37741;49.748;8.490;2022-12-18T06:49:45;-5.80;78.70
51661;DHT22;37741;49.748;8.490;2022-12-18T06:52:24;-5.80;78.70
51661;DHT22;37741;49.748;8.490;2022-12-18T06:54:50;-5.80;78.70
51661;DHT22;37741;49.748;8.490;2022-12-18T06:57:15;-5.90;78.60
51661;DHT22;37741;49.748;8.490;2022-12-18T06:59:41;-5.90;78.60
51661;DHT22;37741;49.748;8.490;2022-12-18T07:02:09;-5.90;79.10
51661;DHT22;37741;49.748;8.490;2022-12-18T07:04:35;-5.90;78.60
51661;DHT22;37741;49.748;8.490;2022-12-18T07:07:01;-5.90;78.60
51661;DHT22;37741;49.748;8.490;2022-12-18T07:09:27;-5.90;78.40
51661;DHT22;37741;49.748;8.490;2022-12-18T07:11:52;-5.90;78.50
51661;DHT22;37741;49.748;8.490;2022-12-18T07:14:18;-6.00;78.50
51661;DHT22;37741;49.748;8.490;2022-12-18T07:16:43;-5.90;78.40
51661;DHT22;37741;49.748;8.490;2022-12-18T07:19:09;-6.00;78.40
51661;DHT22;37741;49.748;8.490;2022-12-18T07:21:34;-6.00;78.40
51661;DHT22;37741;49.748;8.490;2022-12-18T07:24:00;-6.00;78.50
51661;DHT22;37741;49.748;8.490;2022-12-18T07:26:26;-6.00;78.50
51661;DHT22;37741;49.748;8.490;2022-12-18T07:28:55;-6.10;78.50
51661;DHT22;37741;49.748;8.490;2022-12-18T07:31:21;-6.10;78.40
51661;DHT22;37741;49.748;8.490;2022-12-18T07:33:48;-6.10;78.30
51661;DHT22;37741;49.748;8.490;2022-12-18T07:36:14;-6.10;78.10
51661;DHT22;37741;49.748;8.490;2022-12-18T07:38:40;-6.10;78.20
51661;DHT22;37741;49.748;8.490;2022-12-18T07:41:09;-6.10;78.10
51661;DHT22;37741;49.748;8.490;2022-12-18T07:43:35;-6.10;78.10
51661;DHT22;37741;49.748;8.490;2022-12-18T07:46:02;-6.10;78.10
51661;DHT22;37741;49.748;8.490;2022-12-18T07:48:33;-6.10;78.00
51661;DHT22;37741;49.748;8.490;2022-12-18T07:51:03;-6.10;77.90
51661;DHT22;37741;49.748;8.490;2022-12-18T07:53:36;-6.10;77.90
51661;DHT22;37741;49.748;8.490;2022-12-18T07:56:08;-6.10;77.90
51661;DHT22;37741;49.748;8.490;2022-12-18T07:58:34;-6.10;77.90
51661;DHT22;37741;49.748;8.490;2022-12-18T08:01:09;-6.10;78.00
51661;DHT22;37741;49.748;8.490;2022-12-18T08:03:35;-6.10;78.00
51661;DHT22;37741;49.748;8.490;2022-12-18T08:06:06;-6.10;78.00
51661;DHT22;37741;49.748;8.490;2022-12-18T08:08:33;-6.10;78.10
51661;DHT22;37741;49.748;8.490;2022-12-18T08:10:59;-6.10;78.20
51661;DHT22;37741;49.748;8.490;2022-12-18T08:13:25;-6.10;78.20
51661;DHT22;37741;49.748;8.490;2022-12-18T08:16:02;-6.10;78.20
51661;DHT22;37741;49.748;8.490;2022-12-18T08:18:28;-6.10;78.30
51661;DHT22;37741;49.748;8.490;2022-12-18T08:20:54;-6.10;78.30
51661;DHT22;37741;49.748;8.490;2022-12-18T08:23:20;-6.10;78.30
51661;DHT22;37741;49.748;8.490;2022-12-18T08:25:46;-6.10;78.40
51661;DHT22;37741;49.748;8.490;2022-12-18T08:28:12;-6.10;78.40
51661;DHT22;37741;49.748;8.490;2022-12-18T08:30:38;-6.10;78.50
51661;DHT22;37741;49.748;8.490;2022-12-18T08:33:04;-6.10;79.20
51661;DHT22;37741;49.748;8.490;2022-12-18T08:35:30;-6.10;78.90
51661;DHT22;37741;49.748;8.490;2022-12-18T08:37:55;-6.10;78.60
51661;DHT22;37741;49.748;8.490;2022-12-18T08:40:21;-6.10;78.70
51661;DHT22;37741;49.748;8.490;2022-12-18T08:42:47;-6.00;78.70
51661;DHT22;37741;49.748;8.490;2022-12-18T09:20:00;-6.00;79.20
51661;DHT22;37741;49.748;8.490;2022-12-18T09:22:26;-6.00;79.30
51661;DHT22;37741;49.748;8.490;2022-12-18T09:24:51;-6.00;79.30
51661;DHT22;37741;49.748;8.490;2022-12-18T09:27:17;-6.00;79.30
51661;DHT22;37741;49.748;8.490;2022-12-18T09:29:42;-6.00;79.30
51661;DHT22;37741;49.748;8.490;2022-12-18T09:32:08;-5.90;79.40
51661;DHT22;37741;49.748;8.490;2022-12-18T09:34:34;-6.00;79.30
51661;DHT22;37741;49.748;8.490;2022-12-18T09:36:59;-5.90;79.50
51661;DHT22;37741;49.748;8.490;2022-12-18T09:39:25;-6.00;79.40
51661;DHT22;37741;49.748;8.490;2022-12-18T09:41:53;-5.90;79.60
51661;DHT22;37741;49.748;8.490;2022-12-18T09:44:41;-5.90;79.50
51661;DHT22;37741;49.748;8.490;2022-12-18T09:47:27;-5.90;79.50
51661;DHT22;37741;49.748;8.490;2022-12-18T09:49:59;-5.90;79.50
51661;DHT22;37741;49.748;8.490;2022-12-18T09:52:43;-5.90;79.50
51661;DHT22;37741;49.748;8.490;2022-12-18T09:57:45;-5.90;79.60
51661;DHT22;37741;49.748;8.490;2022-12-18T10:00:21;-5.90;79.60
51661;DHT22;37741;49.748;8.490;2022-12-18T10:02:49;-5.90;79.60
51661;DHT22;37741;49.748;8.490;2022-12-18T10:05:20;-5.90;79.60
51661;DHT22;37741;49.748;8.490;2022-12-18T10:07:59;-5.90;79.60
51661;DHT22;37741;49.748;8.490;2022-12-18T10:17:50;-5.90;79.60
51661;DHT22;37741;49.748;8.490;2022-12-18T10:20:39;-5.90;79.70
51661;DHT22;37741;49.748;8.490;2022-12-18T10:26:11;-5.90;79.80
51661;DHT22;37741;49.748;8.490;2022-12-18T10:29:11;-5.90;79.80
51661;DHT22;37741;49.748;8.490;2022-12-18T10:31:42;-5.90;79.90
51661;DHT22;37741;49.748;8.490;2022-12-18T10:34:14;-5.90;79.90
51661;DHT22;37741;49.748;8.490;2022-12-18T10:36:39;-5.90;79.90
51661;DHT22;37741;49.748;8.490;2022-12-18T10:39:21;-5.90;79.90
51661;DHT22;37741;49.748;8.490;2022-12-18T10:41:51;-5.90;79.90
51661;DHT22;37741;49.748;8.490;2022-12-18T10:44:26;-5.90;79.90
51661;DHT22;37741;49.748;8.490;2022-12-18T10:47:03;-5.80;80.00
51661;DHT22;37741;49.748;8.490;2022-12-18T10:49:31;-5.80;80.00
51661;DHT22;37741;49.748;8.490;2022-12-18T10:52:24;-5.80;79.90
51661;DHT22;37741;49.748;8.490;2022-12-18T10:54:59;-5.80;79.90
51661;DHT22;37741;49.748;8.490;2022-12-18T10:57:36;-5.80;79.90
51661;DHT22;37741;49.748;8.490;2022-12-18T11:00:23;-5.80;79.90
51661;DHT22;37741;49.748;8.490;2022-12-18T11:02:50;-5.80;79.90
51661;DHT22;37741;49.748;8.490;2022-12-18T11:05:33;-5.80;80.00
51661;DHT22;37741;49.748;8.490;2022-12-18T11:08:00;-5.70;80.00
51661;DHT22;37741;49.748;8.490;2022-12-18T11:10:32;-5.80;80.10
51661;DHT22;37741;49.748;8.490;2022-12-18T11:13:21;-5.80;80.10
51661;DHT22;37741;49.748;8.490;2022-12-18T11:15:48;-5.70;80.10
51661;DHT22;37741;49.748;8.490;2022-12-18T11:18:26;-5.70;80.10
51661;DHT22;37741;49.748;8.490;2022-12-18T11:20:58;-5.70;80.20
51661;DHT22;37741;49.748;8.490;2022-12-18T11:23:25;-5.70;80.20
51661;DHT22;37741;49.748;8.490;2022-12-18T11:25:57;-5.70;80.20
51661;DHT22;37741;49.748;8.490;2022-12-18T11:28:38;-5.70;80.10
51661;DHT22;37741;49.748;8.490;2022-12-18T11:31:25;-5.60;80.20
51661;DHT22;37741;49.748;8.490;2022-12-18T11:34:10;-5.60;80.20
51661;DHT22;37741;49.748;8.490;2022-12-18T11:36:46;-5.60;80.30
51661;DHT22;37741;49.748;8.490;2022-12-18T11:39:42;-5.60;80.20
51661;DHT22;37741;49.748;8.490;2022-12-18T11:42:24;-5.60;80.20
51661;DHT22;37741;49.748;8.490;2022-12-18T11:47:40;-5.60;80.20
51661;DHT22;37741;49.748;8.490;2022-12-18T11:50:21;-5.60;80.20
51661;DHT22;37741;49.748;8.490;2022-12-18T11:52:48;-5.60;80.20
51661;DHT22;37741;49.748;8.490;2022-12-18T11:55:31;-5.60;80.10
51661;DHT22;37741;49.748;8.490;2022-12-18T12:16:00;-5.50;80.20
51661;DHT22;37741;49.748;8.490;2022-12-18T12:24:04;-5.40;80.20
51661;DHT22;37741;49.748;8.490;2022-12-18T12:26:45;-5.40;80.30
51661;DHT22;37741;49.748;8.490;2022-12-18T12:37:55;-5.40;80.30
51661;DHT22;37741;49.748;8.490;2022-12-18T12:40:27;-5.30;80.30
51661;DHT22;37741;49.748;8.490;2022-12-18T12:43:10;-5.30;80.50
51661;DHT22;37741;49.748;8.490;2022-12-18T12:48:47;-5.30;80.30
51661;DHT22;37741;49.748;8.490;2022-12-18T12:51:41;-5.30;80.30
51661;DHT22;37741;49.748;8.490;2022-12-18T12:54:17;-5.30;80.30
51661;DHT22;37741;49.748;8.490;2022-12-18T12:59:39;-5.30;80.20
51661;DHT22;37741;49.748;8.490;2022-12-18T13:02:34;-5.20;80.20
51661;DHT22;37741;49.748;8.490;2022-12-18T13:08:04;-5.30;80.10
51661;DHT22;37741;49.748;8.490;2022-12-18T13:10:34;-5.20;80.10
51661;DHT22;37741;49.748;8.490;2022-12-18T13:13:11;-5.20;80.10
51661;DHT22;37741;49.748;8.490;2022-12-18T13:16:26;-5.20;80.10
51661;DHT22;37741;49.748;8.490;2022-12-18T13:18:33;-5.20;80.10
51661;DHT22;37741;49.748;8.490;2022-12-18T14:24:12;-5.00;80.30
51661;DHT22;37741;49.748;8.490;2022-12-18T14:26:38;-5.00;80.40
51661;DHT22;37741;49.748;8.490;2022-12-18T14:32:31;-5.00;80.50
51661;DHT22;37741;49.748;8.490;2022-12-18T14:34:56;-5.00;80.60
51661;DHT22;37741;49.748;8.490;2022-12-18T14:37:26;-5.00;80.50
51661;DHT22;37741;49.748;8.490;2022-12-18T14:40:01;-5.00;80.50
51661;DHT22;37741;49.748;8.490;2022-12-18T14:42:28;-5.00;80.50
51661;DHT22;37741;49.748;8.490;2022-12-18T15:19:31;-4.90;80.70
51661;DHT22;37741;49.748;8.490;2022-12-18T15:25:31;-4.90;80.70
51661;DHT22;37741;49.748;8.490;2022-12-18T15:34:35;-4.90;80.80
51661;DHT22;37741;49.748;8.490;2022-12-18T15:37:00;-5.00;80.70
51661;DHT22;37741;49.748;8.490;2022-12-18T15:39:26;-4.90;80.80
51661;DHT22;37741;49.748;8.490;2022-12-18T15:41:52;-4.90;80.80
51661;DHT22;37741;49.748;8.490;2022-12-18T15:44:36;-4.90;80.90
51661;DHT22;37741;49.748;8.490;2022-12-18T15:47:03;-4.90;80.80
51661;DHT22;37741;49.748;8.490;2022-12-18T15:49:32;-4.90;80.80
51661;DHT22;37741;49.748;8.490;2022-12-18T15:51:59;-4.90;80.80
51661;DHT22;37741;49.748;8.490;2022-12-18T15:54:26;-4.90;80.80
51661;DHT22;37741;49.748;8.490;2022-12-18T15:57:11;-4.90;80.80
51661;DHT22;37741;49.748;8.490;2022-12-18T15:59:56;-4.90;80.90
51661;DHT22;37741;49.748;8.490;2022-12-18T16:02:23;-4.90;80.90
51661;DHT22;37741;49.748;8.490;2022-12-18T16:04:51;-4.90;81.80
51661;DHT22;37741;49.748;8.490;2022-12-18T16:07:18;-4.90;83.80
51661;DHT22;37741;49.748;8.490;2022-12-18T16:09:43;-4.80;83.30
51661;DHT22;37741;49.748;8.490;2022-12-18T16:12:21;-4.80;83.10
51661;DHT22;37741;49.748;8.490;2022-12-18T16:14:48;-4.90;82.90
51661;DHT22;37741;49.748;8.490;2022-12-18T16:17:14;-4.80;82.70
51661;DHT22;37741;49.748;8.490;2022-12-18T16:19:43;-4.90;82.50
51661;DHT22;37741;49.748;8.490;2022-12-18T16:22:27;-4.90;82.40
51661;DHT22;37741;49.748;8.490;2022-12-18T16:24:57;-4.90;82.40
51661;DHT22;37741;49.748;8.490;2022-12-18T16:27:23;-4.80;82.30
51661;DHT22;37741;49.748;8.490;2022-12-18T16:29:49;-4.80;82.30
51661;DHT22;37741;49.748;8.490;2022-12-18T16:32:18;-4.90;82.20
51661;DHT22;37741;49.748;8.490;2022-12-18T16:34:44;-4.90;82.20
51661;DHT22;37741;49.748;8.490;2022-12-18T16:37:13;-4.80;82.30
51661;DHT22;37741;49.748;8.490;2022-12-18T16:39:39;-4.80;82.20
51661;DHT22;37741;49.748;8.490;2022-12-18T16:42:26;-4.80;82.30
51661;DHT22;37741;49.748;8.490;2022-12-18T16:44:51;-4.90;82.20
51661;DHT22;37741;49.748;8.490;2022-12-18T16:47:17;-4.90;82.20
51661;DHT22;37741;49.748;8.490;2022-12-18T16:49:44;-4.80;82.30
51661;DHT22;37741;49.748;8.490;2022-12-18T16:52:10;-4.80;82.30
51661;DHT22;37741;49.748;8.490;2022-12-18T16:54:36;-4.90;82.20
51661;DHT22;37741;49.748;8.490;2022-12-18T16:57:02;-4.80;82.30
51661;DHT22;37741;49.748;8.490;2022-12-18T16:59:29;-4.80;82.30
51661;DHT22;37741;49.748;8.490;2022-12-18T17:01:55;-4.80;82.30
51661;DHT22;37741;49.748;8.490;2022-12-18T17:04:21;-4.80;82.30
51661;DHT22;37741;49.748;8.490;2022-12-18T17:06:47;-4.80;82.30
51661;DHT22;37741;49.748;8.490;2022-12-18T17:09:17;-4.80;82.30
51661;DHT22;37741;49.748;8.490;2022-12-18T17:11:53;-4.80;82.40
51661;DHT22;37741;49.748;8.490;2022-12-18T17:14:21;-4.80;82.40
51661;DHT22;37741;49.748;8.490;2022-12-18T17:16:47;-4.80;82.30
51661;DHT22;37741;49.748;8.490;2022-12-18T17:19:14;-4.80;82.40
51661;DHT22;37741;49.748;8.490;2022-12-18T17:21:41;-4.80;82.40
51661;DHT22;37741;49.748;8.490;2022-12-18T17:24:08;-4.80;82.40
51661;DHT22;37741;49.748;8.490;2022-12-18T17:26:33;-4.80;82.40
51661;DHT22;37741;49.748;8.490;2022-12-18T17:28:59;-4.80;82.40
51661;DHT22;37741;49.748;8.490;2022-12-18T17:31:27;-4.80;82.40
51661;DHT22;37741;49.748;8.490;2022-12-18T17:33:54;-4.80;82.40
51661;DHT22;37741;49.748;8.490;2022-12-18T17:39:54;-4.80;82.40
51661;DHT22;37741;49.748;8.490;2022-12-18T17:42:20;-4.80;82.40
51661;DHT22;37741;49.748;8.490;2022-12-18T17:44:45;-4.80;82.40
51661;DHT22;37741;49.748;8.490;2022-12-18T17:47:12;-4.80;82.40
51661;DHT22;37741;49.748;8.490;2022-12-18T17:49:38;-4.80;82.40
51661;DHT22;37741;49.748;8.490;2022-12-18T17:52:03;-4.80;83.00
51661;DHT22;37741;49.748;8.490;2022-12-18T17:54:29;-4.70;82.40
51661;DHT22;37741;49.748;8.490;2022-12-18T17:56:55;-4.80;82.40
51661;DHT22;37741;49.748;8.490;2022-12-18T17:59:23;-4.80;82.40
51661;DHT22;37741;49.748;8.490;2022-12-18T18:01:49;-4.80;82.40
51661;DHT22;37741;49.748;8.490;2022-12-18T18:04:14;-4.70;82.40
51661;DHT22;37741;49.748;8.490;2022-12-18T18:06:40;-4.80;82.40
51661;DHT22;37741;49.748;8.490;2022-12-18T18:12:05;-4.70;82.40
51661;DHT22;37741;49.748;8.490;2022-12-18T18:17:38;-4.70;82.50
51661;DHT22;37741;49.748;8.490;2022-12-18T18:20:04;-4.70;82.40
51661;DHT22;37741;49.748;8.490;2022-12-18T18:22:31;-4.70;82.50
51661;DHT22;37741;49.748;8.490;2022-12-18T18:24:57;-4.70;82.40
51661;DHT22;37741;49.748;8.490;2022-12-18T18:27:23;-4.70;82.50
51661;DHT22;37741;49.748;8.490;2022-12-18T18:29:51;-4.70;82.50
51661;DHT22;37741;49.748;8.490;2022-12-18T18:32:16;-4.70;82.50
51661;DHT22;37741;49.748;8.490;2022-12-18T18:34:42;-4.70;82.50
51661;DHT22;37741;49.748;8.490;2022-12-18T18:37:11;-4.70;82.50
51661;DHT22;37741;49.748;8.490;2022-12-18T18:39:37;-4.70;82.50
51661;DHT22;37741;49.748;8.490;2022-12-18T18:42:03;-4.70;82.50
51661;DHT22;37741;49.748;8.490;2022-12-18T18:44:28;-4.60;82.50
51661;DHT22;37741;49.748;8.490;2022-12-18T18:46:55;-4.60;82.50
51661;DHT22;37741;49.748;8.490;2022-12-18T18:49:22;-4.70;82.50
51661;DHT22;37741;49.748;8.490;2022-12-18T18:51:51;-4.60;82.60
51661;DHT22;37741;49.748;8.490;2022-12-18T18:54:17;-4.70;82.50
51661;DHT22;37741;49.748;8.490;2022-12-18T18:56:47;-4.70;82.40
51661;DHT22;37741;49.748;8.490;2022-12-18T18:59:13;-4.60;82.50
51661;DHT22;37741;49.748;8.490;2022-12-18T19:01:38;-4.60;82.50
51661;DHT22;37741;49.748;8.490;2022-12-18T19:04:04;-4.70;82.40
51661;DHT22;37741;49.748;8.490;2022-12-18T19:06:33;-4.60;82.50
51661;DHT22;37741;49.748;8.490;2022-12-18T19:09:03;-4.60;82.40
51661;DHT22;37741;49.748;8.490;2022-12-18T19:11:31;-4.60;82.40
51661;DHT22;37741;49.748;8.490;2022-12-18T19:14:16;-4.60;82.40
51661;DHT22;37741;49.748;8.490;2022-12-18T19:16:42;-4.60;82.40
51661;DHT22;37741;49.748;8.490;2022-12-18T19:19:09;-4.60;82.40
51661;DHT22;37741;49.748;8.490;2022-12-18T19:21:35;-4.60;82.40
51661;DHT22;37741;49.748;8.490;2022-12-18T19:24:05;-4.60;82.50
51661;DHT22;37741;49.748;8.490;2022-12-18T19:26:31;-4.60;82.50
51661;DHT22;37741;49.748;8.490;2022-12-18T19:29:01;-4.60;82.40
51661;DHT22;37741;49.748;8.490;2022-12-18T19:31:27;-4.60;82.50
51661;DHT22;37741;49.748;8.490;2022-12-18T19:33:53;-4.60;82.50
51661;DHT22;37741;49.748;8.490;2022-12-18T19:36:24;-4.60;82.50
51661;DHT22;37741;49.748;8.490;2022-12-18T19:38:51;-4.60;82.50
51661;DHT22;37741;49.748;8.490;2022-12-18T19:41:18;-4.60;82.50
51661;DHT22;37741;49.748;8.490;2022-12-18T19:43:44;-4.50;82.50
51661;DHT22;37741;49.748;8.490;2022-12-18T19:46:12;-4.50;82.50